Time;durP1;ratioP1;P1;durP2;ratioP2;P2;SDS_P1;SDS_P2;PMS_P1;PMS_P2;Temp;Humidity;BMP_temperature;BMP_pressure;BME280_temperature;BME280_humidity;BME280_pressure;Samples;Min_cycle;Max_cycle;Signal;HPM_P1;HPM_P2
2023/08/10 00:00:25;;;;;;;3.70;0.77;;;15.40;99.90;;;;;;5016594;28;20487;-83
2023/08/10 00:02:53;;;;;;;1.00;0.80;;;15.40;99.90;;;;;;5016575;28;20485;-83
2023/08/10 00:05:21;;;;;;;0.63;0.60;;;15.50;99.90;;;;;;5016397;28;20467;-83
2023/08/10 00:07:47;;;;;;;0.50;0.50;;;15.40;99.90;;;;;;5016158;28;20964;-83
2023/08/10 00:10:14;;;;;;;1.27;0.70;;;15.40;99.90;;;;;;5016449;28;20535;-83
2023/08/10 00:12:41;;;;;;;0.70;0.70;;;15.50;99.90;;;;;;5016403;28;20458;-83
2023/08/10 00:15:08;;;;;;;1.10;0.80;;;15.40;99.90;;;;;;5016191;28;20846;-83
2023/08/10 00:17:35;;;;;;;3.07;1.57;;;15.50;99.90;;;;;;5016269;28;20447;-83
2023/08/10 00:20:05;;;;;;;1.83;0.80;;;15.40;99.90;;;;;;5016134;28;20840;-84
2023/08/10 00:22:33;;;;;;;0.70;0.70;;;15.40;99.90;;;;;;5015847;28;20447;-84
2023/08/10 00:24:59;;;;;;;0.70;0.70;;;15.40;99.90;;;;;;5016079;28;20475;-83
2023/08/10 00:27:26;;;;;;;0.93;0.70;;;15.40;99.90;;;;;;5016078;28;20448;-84
2023/08/10 00:29:53;;;;;;;1.20;1.03;;;15.40;99.90;;;;;;5016066;28;20436;-83
2023/08/10 00:32:21;;;;;;;1.17;1.00;;;15.30;99.90;;;;;;5016001;28;20455;-83
2023/08/10 00:34:48;;;;;;;0.80;0.80;;;15.40;99.90;;;;;;5015708;28;20564;-83
2023/08/10 00:37:15;;;;;;;0.70;0.70;;;15.30;99.90;;;;;;5015983;28;20478;-83
2023/08/10 00:39:44;;;;;;;0.67;0.63;;;15.30;99.90;;;;;;5015490;28;20570;-83
2023/08/10 00:42:12;;;;;;;0.93;0.80;;;15.20;99.90;;;;;;5015498;28;20453;-83
2023/08/10 00:44:40;;;;;;;0.67;0.67;;;15.20;99.90;;;;;;5015710;28;20532;-83
2023/08/10 00:47:07;;;;;;;1.20;0.70;;;15.20;99.90;;;;;;5015750;28;20856;-83
2023/08/10 00:49:34;;;;;;;1.60;0.90;;;15.20;99.90;;;;;;5015693;28;20808;-84
2023/08/10 00:52:02;;;;;;;0.73;0.73;;;15.20;99.90;;;;;;5015650;28;20443;-84
2023/08/10 00:54:28;;;;;;;1.40;1.30;;;15.10;99.90;;;;;;5015641;28;20833;-83
2023/08/10 00:56:57;;;;;;;2.10;1.13;;;15.10;99.90;;;;;;5015469;28;20490;-83
2023/08/10 00:59:24;;;;;;;0.90;0.60;;;15.10;99.90;;;;;;5015145;28;20490;-83
2023/08/10 01:01:51;;;;;;;0.60;0.60;;;15.10;99.90;;;;;;5015129;28;20436;-83
2023/08/10 01:04:18;;;;;;;0.53;0.53;;;15.10;99.90;;;;;;5015123;28;20972;-83
2023/08/10 01:06:49;;;;;;;0.87;0.80;;;15.10;99.90;;;;;;5015061;28;20929;-83
2023/08/10 01:09:20;;;;;;;1.20;0.77;;;15.10;99.90;;;;;;5015381;28;20428;-83
2023/08/10 01:11:56;;;;;;;2.07;0.73;;;15.10;99.90;;;;;;5015308;28;20824;-83
2023/08/10 01:14:33;;;;;;;1.07;0.83;;;15.10;99.90;;;;;;5015220;28;20577;-83
2023/08/10 01:17:04;;;;;;;0.90;0.70;;;15.00;99.90;;;;;;5014893;28;20432;-83
2023/08/10 01:19:35;;;;;;;0.60;0.60;;;14.90;99.90;;;;;;5015091;28;20474;-83
2023/08/10 01:22:07;;;;;;;0.50;0.43;;;14.90;99.90;;;;;;5014798;28;20432;-83
2023/08/10 01:24:41;;;;;;;2.30;0.87;;;14.80;99.90;;;;;;5014995;28;20456;-83
2023/08/10 01:27:11;;;;;;;1.00;1.00;;;14.80;99.90;;;;;;5015052;28;20416;-83
2023/08/10 01:29:38;;;;;;;0.80;0.80;;;14.70;99.90;;;;;;5014910;28;20506;-83
2023/08/10 01:32:06;;;;;;;0.60;0.60;;;14.70;99.90;;;;;;5014844;28;20462;-83
2023/08/10 01:34:32;;;;;;;1.07;0.97;;;14.60;99.90;;;;;;5014736;28;20515;-83
2023/08/10 01:36:59;;;;;;;0.60;0.53;;;14.60;99.90;;;;;;5014629;28;20483;-83
2023/08/10 01:39:26;;;;;;;1.00;0.60;;;14.60;99.90;;;;;;5014359;28;21003;-83
2023/08/10 01:41:53;;;;;;;0.57;0.57;;;14.50;99.90;;;;;;5014723;28;20447;-83
2023/08/10 01:44:21;;;;;;;0.70;0.57;;;14.50;99.90;;;;;;5014378;28;20458;-83
2023/08/10 01:46:49;;;;;;;1.17;0.70;;;14.50;99.90;;;;;;5014638;28;20443;-83
2023/08/10 01:49:19;;;;;;;1.10;0.70;;;14.50;99.90;;;;;;5014346;28;20542;-83
2023/08/10 01:51:48;;;;;;;1.40;0.80;;;14.50;99.90;;;;;;5014317;28;20832;-83
2023/08/10 01:54:16;;;;;;;0.70;0.57;;;14.40;99.90;;;;;;5014452;28;20459;-83
2023/08/10 01:56:43;;;;;;;1.17;0.73;;;14.40;99.90;;;;;;5014470;28;20454;-83
2023/08/10 01:59:10;;;;;;;1.80;0.70;;;14.30;99.90;;;;;;5014283;28;20455;-83
2023/08/10 02:01:38;;;;;;;1.03;0.80;;;14.20;99.90;;;;;;5014058;28;20462;-83
2023/08/10 02:04:05;;;;;;;0.70;0.70;;;14.20;99.90;;;;;;5014014;28;20858;-83
2023/08/10 02:06:37;;;;;;;0.93;0.80;;;14.20;99.90;;;;;;5014282;28;20451;-83
2023/08/10 02:09:05;;;;;;;0.90;0.60;;;14.30;99.90;;;;;;5013924;28;20432;-83
2023/08/10 02:11:31;;;;;;;0.60;0.50;;;14.20;99.90;;;;;;5014178;28;20538;-83
2023/08/10 02:13:59;;;;;;;0.80;0.80;;;14.20;99.90;;;;;;5013580;28;20471;-84
2023/08/10 02:16:25;;;;;;;0.87;0.87;;;14.20;99.90;;;;;;5014158;28;20464;-83
2023/08/10 02:18:53;;;;;;;2.50;0.90;;;14.20;99.90;;;;;;5014876;28;20519;-83
2023/08/10 02:21:23;;;;;;;9.40;0.90;;;14.20;99.90;;;;;;5014229;28;20479;-83
2023/08/10 02:23:50;;;;;;;1.17;0.80;;;14.10;99.90;;;;;;5015174;28;20464;-83
2023/08/10 02:26:17;;;;;;;2.33;0.80;;;14.10;99.90;;;;;;5013942;28;20444;-83
2023/08/10 02:28:44;;;;;;;1.13;0.73;;;14.10;99.90;;;;;;5013908;28;20937;-83
2023/08/10 02:31:11;;;;;;;1.37;1.27;;;14.00;99.90;;;;;;5013868;28;20497;-83
2023/08/10 02:33:37;;;;;;;4.27;0.83;;;14.10;99.90;;;;;;5013516;28;20436;-83
2023/08/10 02:36:06;;;;;;;0.80;0.60;;;14.10;99.90;;;;;;5013282;28;21017;-83
2023/08/10 02:38:32;;;;;;;4.10;0.90;;;14.00;99.90;;;;;;5013767;28;20447;-83
2023/08/10 02:40:59;;;;;;;1.07;0.67;;;14.10;99.90;;;;;;5013346;28;21004;-83
2023/08/10 02:43:26;;;;;;;0.63;0.60;;;14.10;99.90;;;;;;5013719;28;20447;-83
2023/08/10 02:45:53;;;;;;;0.70;0.70;;;14.30;99.90;;;;;;5013279;28;20526;-83
2023/08/10 02:48:20;;;;;;;0.80;0.70;;;14.20;99.90;;;;;;5013373;28;20458;-83
2023/08/10 02:50:48;;;;;;;3.10;1.20;;;14.20;99.90;;;;;;5013545;28;20538;-83
2023/08/10 02:53:16;;;;;;;0.90;0.60;;;14.20;99.90;;;;;;5013281;28;20948;-83
2023/08/10 02:55:44;;;;;;;1.07;0.93;;;14.20;99.90;;;;;;5013088;28;20850;-83
2023/08/10 02:58:10;;;;;;;0.90;0.73;;;14.20;99.90;;;;;;5013251;28;20448;-83
2023/08/10 03:00:37;;;;;;;0.63;0.60;;;14.30;99.90;;;;;;5013491;28;20893;-83
2023/08/10 03:03:05;;;;;;;1.37;0.80;;;14.30;99.90;;;;;;5013808;28;20446;-83
2023/08/10 03:05:32;;;;;;;0.80;0.50;;;14.20;99.90;;;;;;5013431;28;20471;-83
2023/08/10 03:07:59;;;;;;;0.83;0.60;;;14.20;99.90;;;;;;5013171;28;20941;-83
2023/08/10 03:10:27;;;;;;;1.00;0.60;;;14.20;99.90;;;;;;5013394;28;20456;-83
2023/08/10 03:12:53;;;;;;;0.60;0.60;;;14.20;99.90;;;;;;5013095;28;20987;-83
2023/08/10 03:15:20;;;;;;;1.10;1.00;;;14.20;99.90;;;;;;5013324;28;20471;-83
2023/08/10 03:17:47;;;;;;;0.80;0.77;;;14.20;99.90;;;;;;5013052;28;20447;-83
2023/08/10 03:20:16;;;;;;;0.57;0.57;;;14.10;99.90;;;;;;5013018;28;20479;-83
2023/08/10 03:22:43;;;;;;;0.80;0.80;;;14.10;99.90;;;;;;5013381;28;20546;-83
2023/08/10 03:25:10;;;;;;;2.83;1.00;;;14.00;99.90;;;;;;5015055;28;20470;-83
2023/08/10 03:27:39;;;;;;;0.97;0.93;;;14.00;99.90;;;;;;5016944;28;20523;-83
2023/08/10 03:30:07;;;;;;;0.63;0.63;;;14.00;99.90;;;;;;5017199;28;20451;-83
2023/08/10 03:32:34;;;;;;;0.47;0.47;;;13.90;99.90;;;;;;5017081;28;20797;-83
2023/08/10 03:35:01;;;;;;;1.00;0.90;;;14.00;99.90;;;;;;5016588;28;20820;-83
2023/08/10 03:37:28;;;;;;;0.70;0.70;;;14.00;99.90;;;;;;5017617;28;20790;-83
2023/08/10 03:39:54;;;;;;;0.97;0.70;;;13.90;99.90;;;;;;5016653;28;20435;-83
2023/08/10 03:42:21;;;;;;;1.13;1.03;;;13.90;99.90;;;;;;5016718;28;20499;-83
2023/08/10 03:44:49;;;;;;;0.60;0.60;;;13.90;99.90;;;;;;5016728;28;20462;-83
2023/08/10 03:47:16;;;;;;;0.77;0.77;;;13.90;99.90;;;;;;5016600;28;20959;-84
2023/08/10 03:49:43;;;;;;;1.27;0.70;;;13.90;99.90;;;;;;5016718;28;20455;-83
2023/08/10 03:52:09;;;;;;;1.17;0.70;;;13.90;99.90;;;;;;5017261;28;20794;-83
2023/08/10 03:54:37;;;;;;;0.70;0.70;;;13.80;99.90;;;;;;5023956;28;20470;-83
2023/08/10 03:57:04;;;;;;;0.80;0.70;;;13.90;99.90;;;;;;5016426;28;20979;-83
2023/08/10 03:59:30;;;;;;;2.03;1.00;;;13.80;99.90;;;;;;5016426;28;20963;-83
2023/08/10 04:01:59;;;;;;;0.93;0.93;;;13.90;99.90;;;;;;5016582;28;20480;-83
2023/08/10 04:04:26;;;;;;;1.70;0.67;;;13.80;99.90;;;;;;5016496;28;20466;-83
2023/08/10 04:06:52;;;;;;;0.80;0.80;;;13.80;99.90;;;;;;5016280;28;20468;-83
2023/08/10 04:09:19;;;;;;;0.77;0.70;;;13.70;99.90;;;;;;5016151;28;20971;-83
2023/08/10 04:11:46;;;;;;;1.37;0.93;;;13.70;99.90;;;;;;5016413;28;20442;-83
2023/08/10 04:14:12;;;;;;;0.90;0.90;;;13.70;99.90;;;;;;5016282;28;20467;-84
2023/08/10 04:16:39;;;;;;;0.67;0.67;;;13.70;99.90;;;;;;5016328;28;20818;-84
2023/08/10 04:19:07;;;;;;;0.67;0.50;;;13.60;99.90;;;;;;5016301;28;20447;-83
2023/08/10 04:21:35;;;;;;;0.83;0.70;;;13.60;99.90;;;;;;5016132;28;20486;-83
2023/08/10 04:24:02;;;;;;;2.13;0.90;;;13.60;99.90;;;;;;5016033;28;20475;-83
2023/08/10 04:26:28;;;;;;;1.30;1.20;;;13.60;99.90;;;;;;5015869;28;20439;-83
2023/08/10 04:28:55;;;;;;;0.80;0.80;;;13.60;99.90;;;;;;5015766;28;20836;-83
2023/08/10 04:31:22;;;;;;;1.43;0.90;;;13.70;99.90;;;;;;5015886;28;20443;-83
2023/08/10 04:33:48;;;;;;;1.07;0.93;;;13.70;99.90;;;;;;5015944;28;20478;-83
2023/08/10 04:36:17;;;;;;;1.20;0.63;;;13.70;99.90;;;;;;5015140;28;20490;-83
2023/08/10 04:38:44;;;;;;;1.00;0.87;;;13.70;99.90;;;;;;5015922;28;20451;-84
2023/08/10 04:41:10;;;;;;;1.87;1.40;;;13.70;99.90;;;;;;5016345;28;20491;-83
2023/08/10 04:43:37;;;;;;;1.00;1.00;;;13.70;99.90;;;;;;5015766;28;20953;-83
2023/08/10 04:46:04;;;;;;;1.30;0.93;;;13.70;99.90;;;;;;5015524;28;20442;-83
2023/08/10 04:48:30;;;;;;;1.73;0.80;;;13.80;99.90;;;;;;5016552;28;20463;-83
2023/08/10 04:50:57;;;;;;;0.73;0.73;;;13.80;99.90;;;;;;5015328;28;20450;-83
2023/08/10 04:53:25;;;;;;;1.10;0.83;;;13.80;99.90;;;;;;5015910;28;20444;-83
2023/08/10 04:55:52;;;;;;;1.83;0.70;;;13.80;99.90;;;;;;5015287;28;20896;-83
2023/08/10 04:58:19;;;;;;;3.37;1.20;;;13.80;99.90;;;;;;5015528;28;20819;-83
2023/08/10 05:00:45;;;;;;;1.40;1.30;;;13.80;99.90;;;;;;5015076;28;20483;-83
2023/08/10 05:03:12;;;;;;;1.10;0.90;;;14.00;99.90;;;;;;5015418;28;20491;-83
2023/08/10 05:05:40;;;;;;;1.57;0.90;;;14.10;99.90;;;;;;5015295;28;20473;-84
2023/08/10 05:08:07;;;;;;;1.73;0.90;;;14.00;99.90;;;;;;5015358;28;20451;-83
2023/08/10 05:10:35;;;;;;;0.70;0.70;;;14.10;99.90;;;;;;5015315;28;20531;-84
2023/08/10 05:13:02;;;;;;;1.33;1.03;;;14.20;99.90;;;;;;5015220;28;20444;-84
2023/08/10 05:15:29;;;;;;;0.90;0.90;;;14.10;99.90;;;;;;5015190;28;20460;-83
2023/08/10 05:17:56;;;;;;;0.97;0.87;;;14.20;99.90;;;;;;5015452;28;20436;-83
2023/08/10 05:20:23;;;;;;;1.00;0.60;;;14.20;99.90;;;;;;5015040;28;20444;-83
2023/08/10 05:22:51;;;;;;;0.80;0.80;;;14.30;99.90;;;;;;5015122;28;20452;-84
2023/08/10 05:25:18;;;;;;;1.03;0.90;;;14.30;99.90;;;;;;5015059;28;20547;-83
2023/08/10 05:27:46;;;;;;;0.87;0.87;;;14.40;99.90;;;;;;5015069;28;20790;-84
2023/08/10 05:30:13;;;;;;;1.73;1.40;;;14.40;99.90;;;;;;5014682;28;20444;-83
2023/08/10 05:32:42;;;;;;;1.63;1.10;;;14.50;99.90;;;;;;5014588;28;20849;-83
2023/08/10 05:35:09;;;;;;;2.97;1.40;;;14.50;99.90;;;;;;5014589;28;20489;-83
2023/08/10 05:37:36;;;;;;;4.63;1.10;;;14.50;99.90;;;;;;5015247;28;20802;-84
2023/08/10 05:40:07;;;;;;;1.30;1.20;;;14.60;99.90;;;;;;5014497;28;20483;-83
2023/08/10 05:42:34;;;;;;;1.37;1.17;;;14.70;99.90;;;;;;5014677;28;20476;-83
2023/08/10 05:45:02;;;;;;;1.53;1.23;;;14.80;99.90;;;;;;5014318;28;21011;-83
2023/08/10 05:47:29;;;;;;;1.43;1.33;;;14.80;99.90;;;;;;5013896;28;20444;-83
2023/08/10 05:49:56;;;;;;;1.10;1.00;;;14.80;99.90;;;;;;5014532;28;20474;-83
2023/08/10 05:52:22;;;;;;;1.70;1.13;;;15.00;99.90;;;;;;5014225;28;20451;-83
2023/08/10 05:54:49;;;;;;;1.17;1.07;;;15.00;99.90;;;;;;5014452;28;20473;-83
2023/08/10 05:57:16;;;;;;;1.90;1.23;;;15.00;99.90;;;;;;5014195;28;20436;-83
2023/08/10 05:59:43;;;;;;;1.30;1.20;;;15.10;99.90;;;;;;5014410;28;20456;-84
2023/08/10 06:02:11;;;;;;;1.77;1.50;;;15.20;99.90;;;;;;5014555;28;20490;-84
2023/08/10 06:04:37;;;;;;;1.50;1.40;;;15.30;99.90;;;;;;5014157;28;21004;-84
2023/08/10 06:07:04;;;;;;;1.17;1.00;;;15.50;99.90;;;;;;5014309;28;20447;-84
2023/08/10 06:09:31;;;;;;;1.30;1.20;;;15.60;99.90;;;;;;5014235;28;20448;-83
2023/08/10 06:11:58;;;;;;;1.50;1.40;;;15.80;99.90;;;;;;5013907;28;20963;-83
2023/08/10 06:14:25;;;;;;;3.33;1.27;;;15.80;99.90;;;;;;5014113;28;20459;-83
2023/08/10 06:16:52;;;;;;;3.10;2.00;;;15.80;99.90;;;;;;5014116;28;20448;-83
2023/08/10 06:19:21;;;;;;;1.70;1.37;;;15.80;99.90;;;;;;5013805;28;20945;-83
2023/08/10 06:21:47;;;;;;;2.57;1.20;;;16.00;99.90;;;;;;5013993;28;20480;-83
2023/08/10 06:24:16;;;;;;;2.40;1.43;;;16.00;99.90;;;;;;5013918;28;20467;-83
2023/08/10 06:26:43;;;;;;;1.57;1.20;;;16.00;99.90;;;;;;5013685;28;20821;-83
2023/08/10 06:29:10;;;;;;;1.93;1.67;;;16.00;99.90;;;;;;5013617;28;20501;-83
2023/08/10 06:31:36;;;;;;;1.63;1.40;;;16.00;99.90;;;;;;5013604;28;20929;-83
2023/08/10 06:34:03;;;;;;;1.20;1.10;;;16.10;99.90;;;;;;5013484;28;20977;-83
2023/08/10 06:36:31;;;;;;;3.77;1.70;;;16.20;99.90;;;;;;5013484;28;20483;-83
2023/08/10 06:38:58;;;;;;;1.50;1.10;;;16.20;99.90;;;;;;5013730;28;20837;-83
2023/08/10 06:41:25;;;;;;;1.97;1.30;;;16.30;99.90;;;;;;5013850;28;20476;-83
2023/08/10 06:43:52;;;;;;;2.30;2.10;;;16.40;99.90;;;;;;5013644;28;20470;-83
2023/08/10 06:46:19;;;;;;;3.40;1.47;;;16.50;99.90;;;;;;5013369;28;20855;-84
2023/08/10 06:48:47;;;;;;;1.33;1.20;;;16.50;99.90;;;;;;5013677;28;20450;-84
2023/08/10 06:51:13;;;;;;;1.27;1.17;;;16.60;99.90;;;;;;5013373;28;20448;-84
2023/08/10 06:53:41;;;;;;;1.10;1.00;;;16.70;99.90;;;;;;5013556;28;20452;-84
2023/08/10 06:56:09;;;;;;;2.47;1.10;;;16.70;99.90;;;;;;5013350;28;20895;-84
2023/08/10 06:58:36;;;;;;;4.10;1.00;;;16.70;99.90;;;;;;5013470;28;20822;-84
2023/08/10 07:01:03;;;;;;;2.13;1.30;;;16.70;99.90;;;;;;5013489;28;20451;-84
2023/08/10 07:03:29;;;;;;;1.10;1.03;;;16.70;99.90;;;;;;5013425;28;20486;-84
2023/08/10 07:05:56;;;;;;;1.20;0.80;;;16.80;99.90;;;;;;5013474;28;20450;-84
2023/08/10 07:08:23;;;;;;;1.43;1.33;;;17.00;99.90;;;;;;5013210;28;20997;-84
2023/08/10 07:10:51;;;;;;;1.23;1.10;;;17.20;99.90;;;;;;5013286;28;20451;-84
2023/08/10 07:13:18;;;;;;;1.20;1.10;;;17.30;99.90;;;;;;5013128;28;20447;-84
2023/08/10 07:15:45;;;;;;;1.83;1.50;;;17.40;99.90;;;;;;5013356;28;20464;-84
2023/08/10 07:18:13;;;;;;;1.33;1.03;;;17.50;99.90;;;;;;5013489;28;20443;-84
2023/08/10 07:20:41;;;;;;;0.90;0.90;;;17.60;99.90;;;;;;5013357;28;20452;-85
2023/08/10 07:23:07;;;;;;;1.60;1.33;;;17.70;99.90;;;;;;5013282;28;20553;-85
2023/08/10 07:25:36;;;;;;;1.63;1.50;;;17.80;99.90;;;;;;5013053;28;20989;-83
2023/08/10 07:28:05;;;;;;;1.30;1.20;;;17.90;99.90;;;;;;5013583;28;20439;-84
2023/08/10 07:30:32;;;;;;;1.33;1.23;;;18.10;99.90;;;;;;5013601;28;20447;-84
2023/08/10 07:32:59;;;;;;;1.33;1.13;;;18.20;99.90;;;;;;5013292;28;20538;-84
2023/08/10 07:35:26;;;;;;;1.67;1.20;;;18.40;99.90;;;;;;5012965;28;20479;-84
2023/08/10 07:37:53;;;;;;;1.33;1.10;;;18.50;99.90;;;;;;5013026;28;20897;-84
2023/08/10 07:40:20;;;;;;;1.10;1.10;;;18.70;99.90;;;;;;5013178;28;20517;-85
2023/08/10 07:42:47;;;;;;;3.03;1.30;;;18.80;99.90;;;;;;5013104;28;20475;-84
2023/08/10 07:45:15;;;;;;;1.67;1.57;;;18.80;99.90;;;;;;5013067;28;20476;-85
2023/08/10 07:47:42;;;;;;;1.43;1.33;;;19.00;99.90;;;;;;5013152;28;20450;-85
2023/08/10 07:50:10;;;;;;;1.47;1.37;;;19.10;99.90;;;;;;5012786;28;20944;-85
2023/08/10 07:52:37;;;;;;;1.33;1.27;;;19.10;99.90;;;;;;5013076;28;20451;-86
2023/08/10 07:55:05;;;;;;;1.60;1.30;;;19.20;99.90;;;;;;5012713;28;21038;-85
2023/08/10 07:57:31;;;;;;;1.27;1.17;;;19.30;99.90;;;;;;5013016;28;20446;-84
2023/08/10 08:00:04;;;;;;;0.77;0.77;;;19.40;99.90;;;;;;5012789;28;20444;-86
2023/08/10 08:02:32;;;;;;;1.03;0.80;;;19.50;99.90;;;;;;5012768;28;20494;-86
2023/08/10 08:04:59;;;;;;;1.20;1.17;;;19.60;99.90;;;;;;5013324;28;20463;-88
2023/08/10 08:07:26;;;;;;;1.33;1.03;;;19.70;99.90;;;;;;5013684;28;20448;-85
2023/08/10 08:09:53;;;;;;;1.90;1.67;;;19.70;99.90;;;;;;5012751;28;20986;-86
2023/08/10 08:12:20;;;;;;;1.97;1.30;;;19.80;99.90;;;;;;5016585;28;20443;-86
2023/08/10 08:14:47;;;;;;;1.33;1.10;;;19.90;99.90;;;;;;5016206;28;20835;-85
2023/08/10 08:17:14;;;;;;;0.80;0.80;;;20.00;99.90;;;;;;5016178;28;20530;-86
2023/08/10 08:19:42;;;;;;;1.20;1.10;;;20.10;99.90;;;;;;5016412;28;20451;-86
2023/08/10 08:22:08;;;;;;;1.53;1.43;;;20.50;99.90;;;;;;5019282;28;20483;-86
2023/08/10 08:24:35;;;;;;;1.53;1.40;;;20.70;99.90;;;;;;5023267;28;20829;-88
2023/08/10 08:27:02;;;;;;;0.83;0.83;;;20.80;99.90;;;;;;5016881;28;20439;-87
2023/08/10 08:29:29;;;;;;;4.30;1.40;;;20.90;99.90;;;;;;5017093;28;20451;-88
2023/08/10 08:31:55;;;;;;;1.50;1.37;;;20.90;99.90;;;;;;5017502;28;20439;-88
2023/08/10 08:34:22;;;;;;;1.60;1.23;;;21.00;99.90;;;;;;5016901;28;20550;-88
2023/08/10 08:36:50;;;;;;;0.80;0.80;;;21.10;99.90;;;;;;5016293;28;20992;-88
2023/08/10 08:39:17;;;;;;;2.10;1.30;;;21.00;99.90;;;;;;5016478;28;20454;-88
2023/08/10 08:41:46;;;;;;;1.60;1.50;;;21.00;99.90;;;;;;5016711;28;20890;-87
2023/08/10 08:44:14;;;;;;;6.53;0.93;;;21.20;99.90;;;;;;5016217;28;21027;-88
2023/08/10 08:46:44;;;;;;;1.07;1.07;;;21.20;99.90;;;;;;5016567;28;20443;-88
2023/08/10 08:49:11;;;;;;;1.43;0.97;;;21.30;99.90;;;;;;5017290;28;20419;-89
2023/08/10 08:51:39;;;;;;;1.37;1.30;;;21.60;99.90;;;;;;5016817;28;20453;-89
2023/08/10 08:54:07;;;;;;;2.50;1.27;;;21.60;99.90;;;;;;5016525;28;20472;-87
2023/08/10 08:56:34;;;;;;;1.30;1.20;;;21.70;99.90;;;;;;5015784;28;20454;-86
2023/08/10 08:59:01;;;;;;;1.20;1.10;;;21.70;99.90;;;;;;5016147;28;20453;-88
2023/08/10 09:01:29;;;;;;;1.80;0.97;;;21.80;99.90;;;;;;5015808;28;20447;-87
2023/08/10 09:03:56;;;;;;;1.33;1.10;;;21.90;99.90;;;;;;5015931;28;20462;-87
2023/08/10 09:06:23;;;;;;;1.40;1.30;;;22.10;99.90;;;;;;5015613;28;20435;-88
2023/08/10 09:08:50;;;;;;;1.80;1.27;;;22.20;99.90;;;;;;5015640;28;20462;-87
2023/08/10 09:11:18;;;;;;;2.10;1.03;;;22.30;99.90;;;;;;5015756;28;20446;-87
2023/08/10 09:14:07;;;;;;;1.23;0.93;;;22.10;99.90;;;;;;5015515;28;20435;-87
2023/08/10 09:16:34;;;;;;;1.13;1.00;;;21.90;99.90;;;;;;5015594;28;20497;-87
2023/08/10 09:19:02;;;;;;;0.90;0.90;;;21.60;99.90;;;;;;5015264;28;20993;-86
2023/08/10 09:21:33;;;;;;;1.27;1.00;;;21.60;99.90;;;;;;5014792;28;20447;-87
2023/08/10 09:24:00;;;;;;;1.37;0.90;;;21.60;99.90;;;;;;5014543;28;20458;-87
2023/08/10 09:26:27;;;;;;;2.20;1.03;;;21.80;99.90;;;;;;5015509;28;20439;-87
2023/08/10 09:28:55;;;;;;;1.00;0.90;;;21.90;99.90;;;;;;5015121;28;20439;-88
2023/08/10 09:31:25;;;;;;;0.93;0.90;;;22.10;99.90;;;;;;5015503;28;20450;-87
2023/08/10 09:33:56;;;;;;;1.13;1.03;;;22.30;99.90;;;;;;5015375;28;20474;-87
2023/08/10 09:36:25;;;;;;;1.00;1.00;;;22.60;99.90;;;;;;5014852;28;20839;-87
2023/08/10 09:38:53;;;;;;;0.97;0.90;;;22.80;99.90;;;;;;5015257;28;20250;-88
2023/08/10 09:41:21;;;;;;;2.83;1.13;;;23.10;99.90;;;;;;5014731;28;20661;-87
2023/08/10 09:43:49;;;;;;;6.33;1.10;;;23.00;99.90;;;;;;5014498;28;21034;-87
2023/08/10 09:46:16;;;;;;;1.07;0.80;;;23.00;99.90;;;;;;5015290;28;20196;-88
2023/08/10 09:48:47;;;;;;;1.20;0.80;;;23.00;99.90;;;;;;5014985;28;20285;-88
2023/08/10 09:51:14;;;;;;;1.37;1.00;;;23.20;99.90;;;;;;5015182;28;20195;-88
2023/08/10 09:53:41;;;;;;;0.80;0.80;;;23.20;99.90;;;;;;5014831;28;20208;-87
2023/08/10 09:56:08;;;;;;;12.10;1.20;;;23.40;99.90;;;;;;5014648;28;20215;-86
2023/08/10 09:58:37;;;;;;;0.90;0.90;;;23.40;99.90;;;;;;5015148;28;20580;-87
2023/08/10 10:01:04;;;;;;;1.50;0.80;;;23.60;99.90;;;;;;5015377;28;20251;-87
2023/08/10 10:03:32;;;;;;;1.27;1.17;;;23.90;99.90;;;;;;5014799;28;20278;-88
2023/08/10 10:06:01;;;;;;;1.10;1.00;;;24.00;99.90;;;;;;5014613;28;20214;-87
2023/08/10 10:08:28;;;;;;;1.10;0.88;;;24.10;99.90;;;;;;5029510;28;20253;-87
2023/08/10 10:10:58;;;;;;;2.50;0.98;;;24.30;99.90;;;;;;5034287;28;20220;-87
2023/08/10 10:13:26;;;;;;;2.45;1.00;;;24.60;99.90;;;;;;5034212;28;20660;-87
2023/08/10 10:15:54;;;;;;;1.10;1.00;;;24.80;99.90;;;;;;5034150;28;20223;-87
2023/08/10 10:18:21;;;;;;;1.25;1.15;;;25.00;99.90;;;;;;5033991;28;20210;-87
2023/08/10 10:20:50;;;;;;;1.92;1.13;;;24.90;99.90;;;;;;5034033;28;20207;-82
2023/08/10 10:23:20;;;;;;;1.15;0.95;;;24.90;99.90;;;;;;5034021;28;20234;-86
2023/08/10 10:25:57;;;;;;;1.38;1.17;;;24.70;99.90;;;;;;5033883;28;20720;-91
2023/08/10 10:28:24;;;;;;;1.00;0.95;;;24.70;99.90;;;;;;5034816;28;20294;-86
2023/08/10 10:30:56;;;;;;;0.80;0.80;;;24.70;99.90;;;;;;5033760;28;20199;-87
2023/08/10 10:33:23;;;;;;;0.70;0.70;;;24.50;99.90;;;;;;5033464;28;20203;-86
2023/08/10 10:36:11;;;;;;;1.05;1.05;;;24.20;99.90;;;;;;5033194;28;20743;-87
2023/08/10 10:38:40;;;;;;;1.17;0.98;;;24.10;99.90;;;;;;5033838;28;20574;-86
2023/08/10 10:41:14;;;;;;;1.40;1.30;;;24.10;99.90;;;;;;5035948;28;20195;-86
2023/08/10 10:43:41;;;;;;;1.52;0.93;;;24.20;99.90;;;;;;5033733;28;20219;-86
2023/08/10 10:46:07;;;;;;;1.27;1.00;;;24.30;99.90;;;;;;5033493;28;20208;-86
2023/08/10 10:48:35;;;;;;;0.90;0.88;;;24.20;99.90;;;;;;5033469;28;20207;-85
2023/08/10 10:51:03;;;;;;;1.63;1.20;;;24.30;99.90;;;;;;5033205;28;20190;-86
2023/08/10 10:53:32;;;;;;;1.40;1.10;;;24.40;99.90;;;;;;5033310;28;20242;-86
2023/08/10 10:56:01;;;;;;;1.08;0.73;;;24.60;99.90;;;;;;5033860;28;20603;-86
2023/08/10 10:58:31;;;;;;;1.60;1.50;;;24.70;99.90;;;;;;5033429;28;20199;-86
2023/08/10 11:00:57;;;;;;;0.80;0.80;;;25.10;99.90;;;;;;5033484;28;20203;-86
2023/08/10 11:03:29;;;;;;;2.58;1.10;;;25.50;99.90;;;;;;5033542;28;20219;-85
2023/08/10 11:05:56;;;;;;;1.20;1.10;;;25.90;99.90;;;;;;5033696;28;20191;-87
2023/08/10 11:08:24;;;;;;;0.80;0.80;;;26.20;99.90;;;;;;5041327;28;20208;-86
2023/08/10 11:10:51;;;;;;;1.17;1.08;;;26.40;99.90;;;;;;5033227;28;20200;-86
2023/08/10 11:13:21;;;;;;;1.20;1.10;;;26.00;99.90;;;;;;5033011;28;20668;-87
2023/08/10 11:15:49;;;;;;;1.50;1.00;;;26.00;99.90;;;;;;5033254;28;20318;-86
2023/08/10 11:18:16;;;;;;;0.90;0.90;;;25.70;99.90;;;;;;5033271;28;20203;-86
2023/08/10 11:20:44;;;;;;;1.52;1.08;;;25.70;99.90;;;;;;5033094;28;20298;-86
2023/08/10 11:23:11;;;;;;;1.38;1.27;;;25.60;99.90;;;;;;5033500;28;20715;-88
2023/08/10 11:25:45;;;;;;;1.70;1.27;;;25.40;99.90;;;;;;5033353;28;20223;-87
2023/08/10 11:28:12;;;;;;;5.32;1.00;;;25.30;99.90;;;;;;5033232;28;20194;-87
2023/08/10 11:30:40;;;;;;;1.45;1.08;;;25.20;99.90;;;;;;5033047;28;20565;-88
2023/08/10 11:33:07;;;;;;;1.65;1.38;;;25.10;99.90;;;;;;5033303;28;20668;-87
2023/08/10 11:35:34;;;;;;;1.45;1.10;;;25.10;99.90;;;;;;5032995;28;20598;-87
2023/08/10 11:38:00;;;;;;;1.20;1.10;;;25.10;99.90;;;;;;5033356;28;20298;-87
2023/08/10 11:40:27;;;;;;;1.20;1.10;;;24.90;99.90;;;;;;5033120;28;20210;-88
2023/08/10 11:43:04;;;;;;;0.82;0.70;;;24.90;99.90;;;;;;5032652;28;20730;-87
2023/08/10 11:45:33;;;;;;;1.48;0.98;;;24.80;99.90;;;;;;5033730;28;20237;-87
2023/08/10 11:48:01;;;;;;;1.92;1.45;;;24.60;99.90;;;;;;5036762;28;20207;-87
2023/08/10 11:50:29;;;;;;;1.40;1.23;;;24.50;99.90;;;;;;5036744;28;20205;-88
2023/08/10 11:52:58;;;;;;;2.22;1.70;;;24.60;99.90;;;;;;5036847;28;20199;-87
2023/08/10 11:55:28;;;;;;;2.95;1.00;;;24.70;99.90;;;;;;5036399;28;20747;-86
2023/08/10 11:57:58;;;;;;;4.30;1.20;;;24.70;99.90;;;;;;5036761;28;20218;-87
2023/08/10 12:00:28;;;;;;;1.38;1.27;;;24.70;99.90;;;;;;5037013;28;20210;-88
2023/08/10 12:03:03;;;;;;;1.50;1.00;;;24.70;99.90;;;;;;5036572;28;20302;-87
2023/08/10 12:05:36;;;;;;;1.00;0.90;;;24.70;99.90;;;;;;5036820;28;20246;-87
2023/08/10 12:08:05;;;;;;;1.08;1.08;;;24.70;99.90;;;;;;5036505;28;20207;-86
2023/08/10 12:10:38;;;;;;;2.67;0.90;;;24.70;99.90;;;;;;5036459;28;20246;-86
2023/08/10 12:13:07;;;;;;;1.10;1.00;;;24.70;99.90;;;;;;5036960;28;20195;-87
2023/08/10 12:15:35;;;;;;;1.27;1.17;;;24.70;99.90;;;;;;5036487;28;20228;-87
2023/08/10 12:18:05;;;;;;;1.70;0.95;;;24.70;99.90;;;;;;5036980;28;20698;-87
2023/08/10 12:20:31;;;;;;;1.60;1.13;;;24.70;99.60;;;;;;5036235;28;20598;-87
2023/08/10 12:22:59;;;;;;;1.30;1.10;;;24.80;99.00;;;;;;5036067;28;20688;-87
2023/08/10 12:25:25;;;;;;;0.82;0.82;;;24.80;99.90;;;;;;5036082;28;20759;-87
2023/08/10 12:27:52;;;;;;;2.47;1.35;;;24.80;99.90;;;;;;5036495;28;20192;-88
2023/08/10 12:30:19;;;;;;;1.23;1.13;;;24.80;99.10;;;;;;5036250;28;20199;-87
2023/08/10 12:32:46;;;;;;;1.10;1.00;;;24.70;99.30;;;;;;5036183;28;20207;-88
2023/08/10 12:35:15;;;;;;;0.95;0.95;;;24.40;99.50;;;;;;5035934;28;20347;-87
2023/08/10 12:37:42;;;;;;;3.70;1.48;;;24.40;99.90;;;;;;5035975;28;20390;-87
2023/08/10 12:40:10;;;;;;;1.27;1.17;;;24.50;99.90;;;;;;5035872;28;20302;-88
2023/08/10 12:42:38;;;;;;;11.90;0.90;;;24.60;99.90;;;;;;5035842;28;20210;-86
2023/08/10 12:45:06;;;;;;;1.02;0.90;;;24.60;99.90;;;;;;5036231;28;20273;-87
2023/08/10 12:47:33;;;;;;;2.58;1.42;;;24.60;99.30;;;;;;5035812;28;20257;-87
2023/08/10 12:50:00;;;;;;;1.15;1.05;;;24.40;99.90;;;;;;5035849;28;20577;-86